Rockland, Delaware
Current Conditions -  °F | °C
As of 11:51 AM on Friday 28 Nov 2014 (Local Time) from KILG Reporting Station
Broken Clouds Broken Clouds  
Wind Chill: 28°   Ceiling: 5000
Heat Index: 38°   Visibility: 10mi
Dew Point: 16°   Wind: 20mph
Humidity: 41%   Direction: 290°WNW
Pressure: 30.24"   Gusts: 25mph
Location:  39.8°N, 75.57°W
Report Text: KILG 281651Z 29017G22KT 10SM BKN050 03/M09 A3024 RMK AO2 PK WND 32027/1616 SLP242 T00331089
Loading
Personal Weather Stations






























Interactive Weather Map New forecast layout! Learn more

10-Day Weather Forecast

Advertisements
Track Severe Weather on mobile